createdAt,value
2023-04-25T00:00:46.852Z,3.53
2023-04-25T00:03:14.841Z,2.70
2023-04-25T00:05:42.961Z,2.28
2023-04-25T00:08:12.215Z,3.72
2023-04-25T00:10:40.109Z,2.72
2023-04-25T00:13:09.138Z,2.58
2023-04-25T00:15:38.866Z,2.28
2023-04-25T00:18:07.784Z,3.42
2023-04-25T00:20:37.032Z,2.47
2023-04-25T00:23:04.969Z,5.07
2023-04-25T00:25:34.186Z,4.40
2023-04-25T00:28:02.021Z,3.42
2023-04-25T00:30:29.878Z,2.90
2023-04-25T00:32:57.808Z,4.40
2023-04-25T00:35:25.777Z,2.92
2023-04-25T00:37:53.639Z,2.33
2023-04-25T00:40:21.525Z,3.60
2023-04-25T00:42:53.382Z,3.20
2023-04-25T00:45:22.183Z,3.13
2023-04-25T00:47:50.101Z,3.08
2023-04-25T00:50:17.985Z,2.72
2023-04-25T00:52:46.881Z,2.38
2023-04-25T00:55:16.682Z,2.17
2023-04-25T00:57:45.069Z,1.77
2023-04-25T01:00:15.637Z,3.80
2023-04-25T01:02:44.251Z,3.35
2023-04-25T01:05:12.950Z,3.03
2023-04-25T01:07:41.565Z,3.67
2023-04-25T01:10:10.804Z,2.35
2023-04-25T01:12:39.789Z,2.60
2023-04-25T01:15:08.435Z,3.05
2023-04-25T01:17:37.924Z,2.03
2023-04-25T01:20:08.044Z,2.95
2023-04-25T01:22:37.451Z,2.22
2023-04-25T01:25:06.742Z,2.85
2023-04-25T01:27:34.780Z,3.72
2023-04-25T01:30:02.842Z,2.13
2023-04-25T01:32:38.997Z,3.65
2023-04-25T01:35:10.415Z,2.53
2023-04-25T01:37:39.967Z,2.30
2023-04-25T01:40:09.466Z,4.75
2023-04-25T01:42:38.997Z,2.45
2023-04-25T01:45:09.121Z,3.55
2023-04-25T01:47:37.074Z,3.08
2023-04-25T01:50:06.203Z,2.70
2023-04-25T01:52:34.545Z,2.20
2023-04-25T01:55:05.119Z,3.38
2023-04-25T01:57:35.426Z,3.33
2023-04-25T02:00:05.957Z,2.58
2023-04-25T02:02:42.952Z,2.28
2023-04-25T02:05:23.737Z,3.33
2023-04-25T02:07:51.652Z,1.92
2023-04-25T02:10:20.936Z,3.67
2023-04-25T02:13:02.220Z,3.07
2023-04-25T02:15:45.282Z,4.43
2023-04-25T02:18:17.987Z,3.17
2023-04-25T02:20:47.137Z,3.03
2023-04-25T02:23:16.264Z,2.83
2023-04-25T02:25:45.506Z,3.58
2023-04-25T02:28:13.707Z,3.20
2023-04-25T02:30:41.602Z,4.32
2023-04-25T02:33:09.752Z,3.78
2023-04-25T02:35:37.707Z,3.28
2023-04-25T02:38:05.586Z,3.30
2023-04-25T02:40:34.785Z,2.92
2023-04-25T02:43:03.984Z,4.72
2023-04-25T02:45:31.858Z,3.58
2023-04-25T02:47:59.798Z,4.82
2023-04-25T02:50:27.917Z,4.10
2023-04-25T02:52:55.750Z,3.88
2023-04-25T02:55:28.567Z,4.45
2023-04-25T02:57:57.555Z,3.72
2023-04-25T03:00:40.700Z,2.85
2023-04-25T03:03:08.760Z,2.78
2023-04-25T03:05:36.761Z,2.83
2023-04-25T03:08:05.059Z,3.03
2023-04-25T03:10:34.637Z,5.68
2023-04-25T03:15:37.640Z,2.88
2023-04-25T03:18:07.121Z,3.50
2023-04-25T03:20:35.351Z,3.78
2023-04-25T03:23:04.821Z,4.10
2023-04-25T03:25:32.673Z,2.80
2023-04-25T03:28:00.562Z,2.35
2023-04-25T03:30:28.660Z,2.38
2023-04-25T03:32:56.601Z,3.47
2023-04-25T03:35:26.196Z,3.05
2023-04-25T03:37:54.484Z,3.53
2023-04-25T03:40:27.775Z,2.70
2023-04-25T03:43:19.599Z,4.00
2023-04-25T03:45:59.220Z,3.53
2023-04-25T03:48:27.661Z,3.80
2023-04-25T03:50:57.209Z,6.78
2023-04-25T03:53:25.869Z,4.28
2023-04-25T03:56:25.931Z,2.80
2023-04-25T03:59:01.976Z,4.32
2023-04-25T04:01:31.805Z,4.25
2023-04-25T04:03:59.827Z,4.03
2023-04-25T04:06:30.602Z,5.03
2023-04-25T04:09:07.260Z,3.13
2023-04-25T04:11:39.390Z,4.97
2023-04-25T04:14:07.562Z,5.45
2023-04-25T04:16:36.532Z,4.97
2023-04-25T04:19:04.645Z,4.07
2023-04-25T04:21:34.480Z,4.13
2023-04-25T04:24:02.859Z,2.95
2023-04-25T04:26:35.718Z,4.82
2023-04-25T04:29:24.005Z,1.73
2023-04-25T04:32:06.755Z,4.93
2023-04-25T04:34:35.884Z,3.28
2023-04-25T04:37:06.112Z,2.22
2023-04-25T04:39:34.096Z,3.45
2023-04-25T04:42:07.956Z,3.38
2023-04-25T04:47:53.595Z,2.45
2023-04-25T04:50:37.630Z,4.22
2023-04-25T04:53:28.641Z,4.60
2023-04-25T04:56:32.725Z,3.22
2023-04-25T04:59:18.930Z,3.05
2023-04-25T05:02:19.209Z,4.00
2023-04-25T05:04:59.502Z,3.28
2023-04-25T05:08:06.264Z,2.28
2023-04-25T05:11:05.341Z,4.82
2023-04-25T05:13:39.558Z,2.92
2023-04-25T05:16:20.709Z,2.75
2023-04-25T05:19:13.281Z,2.40
2023-04-25T05:22:04.478Z,3.20
2023-04-25T05:24:39.255Z,3.28
2023-04-25T05:27:31.392Z,3.60
2023-04-25T05:33:00.573Z,2.45
2023-04-25T05:35:28.980Z,3.53
2023-04-25T05:37:56.935Z,6.78
2023-04-25T05:40:37.774Z,3.50
2023-04-25T05:43:18.952Z,6.28
2023-04-25T05:45:58.536Z,3.35
2023-04-25T05:48:32.385Z,4.45
2023-04-25T05:51:06.632Z,4.72
2023-04-25T05:53:53.399Z,2.88
2023-04-25T05:56:21.985Z,3.05
2023-04-25T05:58:54.884Z,5.68
2023-04-25T06:01:24.358Z,2.65
2023-04-25T06:03:53.757Z,3.75
2023-04-25T06:06:22.013Z,3.78
2023-04-25T06:08:49.969Z,4.15
2023-04-25T06:11:17.904Z,3.63
2023-04-25T06:13:45.876Z,4.43
2023-04-25T06:16:15.839Z,3.67
2023-04-25T06:18:43.777Z,3.90
2023-04-25T06:21:11.654Z,3.92
2023-04-25T06:23:39.567Z,2.72
2023-04-25T06:26:13.228Z,2.92
2023-04-25T06:31:16.186Z,3.40
2023-04-25T06:33:45.871Z,2.13
2023-04-25T06:36:13.832Z,2.88
2023-04-25T06:38:42.686Z,4.45
2023-04-25T06:41:10.616Z,2.88
2023-04-25T06:43:38.749Z,4.50
2023-04-25T06:46:06.624Z,4.78
2023-04-25T06:48:43.081Z,5.50
2023-04-25T06:51:11.285Z,4.13
2023-04-25T06:53:41.866Z,4.15
2023-04-25T06:56:13.718Z,4.50
2023-04-25T06:58:50.589Z,3.15
2023-04-25T07:01:26.369Z,5.10
2023-04-25T07:03:56.000Z,3.90
2023-04-25T07:06:26.713Z,3.33
2023-04-25T07:08:57.153Z,3.25
2023-04-25T07:11:25.980Z,4.00
2023-04-25T07:13:53.843Z,3.67
2023-04-25T07:16:21.788Z,3.85
2023-04-25T07:18:49.770Z,5.65
2023-04-25T07:21:19.239Z,3.38
2023-04-25T07:23:48.458Z,3.35
2023-04-25T07:26:20.347Z,4.20
2023-04-25T07:29:19.040Z,4.22
2023-04-25T07:31:47.173Z,4.40
2023-04-25T07:34:15.055Z,3.40
2023-04-25T07:36:44.379Z,8.00
2023-04-25T07:39:12.453Z,4.13
2023-04-25T07:41:40.670Z,4.38
2023-04-25T07:44:11.800Z,3.03
2023-04-25T07:46:39.695Z,4.43
2023-04-25T07:49:08.518Z,4.55
2023-04-25T07:51:37.219Z,4.18
2023-04-25T07:54:12.005Z,3.55
2023-04-25T07:56:52.224Z,5.47
2023-04-25T07:59:22.586Z,3.30
2023-04-25T08:01:51.090Z,3.42
2023-04-25T08:04:20.834Z,3.75
2023-04-25T08:06:56.662Z,3.50
2023-04-25T08:09:30.269Z,6.35
2023-04-25T08:11:59.114Z,2.95
2023-04-25T08:14:36.692Z,3.72
2023-04-25T08:17:06.194Z,3.72
2023-04-25T08:19:40.348Z,2.83
2023-04-25T08:22:10.646Z,4.72
2023-04-25T08:24:50.757Z,3.47
2023-04-25T08:27:21.819Z,3.17
2023-04-25T08:29:50.073Z,3.03
2023-04-25T08:32:20.625Z,3.90
2023-04-25T08:35:03.927Z,3.65
2023-04-25T08:37:31.843Z,2.03
2023-04-25T08:40:08.154Z,2.67
2023-04-25T08:42:57.188Z,3.50
2023-04-25T08:45:26.036Z,2.30
2023-04-25T08:47:57.853Z,3.20
2023-04-25T08:50:27.336Z,4.80
2023-04-25T08:53:00.539Z,3.28
2023-04-25T08:55:30.284Z,2.63
2023-04-25T08:58:02.670Z,4.35
2023-04-25T09:00:31.545Z,3.10
2023-04-25T09:03:00.668Z,2.90
2023-04-25T09:05:35.156Z,4.32
2023-04-25T09:08:03.644Z,7.07
2023-04-25T09:10:32.959Z,2.85
2023-04-25T09:13:05.995Z,2.55
2023-04-25T09:15:51.014Z,3.95
2023-04-25T09:18:35.638Z,2.25
2023-04-25T09:21:13.664Z,2.35
2023-04-25T09:23:43.819Z,2.00
2023-04-25T09:26:16.637Z,1.95
2023-04-25T09:28:46.855Z,2.88
2023-04-25T09:31:24.244Z,2.40
2023-04-25T09:34:01.817Z,2.95
2023-04-25T09:36:32.710Z,2.15
2023-04-25T09:39:16.148Z,2.85
2023-04-25T09:41:55.587Z,1.77
2023-04-25T09:44:25.644Z,3.00
2023-04-25T09:46:55.509Z,5.30
2023-04-25T09:49:27.608Z,2.38
2023-04-25T09:52:01.995Z,2.72
2023-04-25T09:54:42.328Z,3.03
2023-04-25T09:57:18.039Z,2.92
2023-04-25T09:59:48.387Z,3.50
2023-04-25T10:02:19.934Z,2.08
2023-04-25T10:04:52.631Z,2.60
2023-04-25T10:07:29.269Z,1.75
2023-04-25T10:10:01.709Z,1.75
2023-04-25T10:12:31.953Z,3.05
2023-04-25T10:15:01.496Z,2.22
2023-04-25T10:17:30.013Z,2.65
2023-04-25T10:19:58.591Z,1.30
2023-04-25T10:22:33.196Z,2.17
2023-04-25T10:25:01.323Z,2.65
2023-04-25T10:27:32.007Z,3.00
2023-04-25T10:30:05.322Z,1.92
2023-04-25T10:35:13.215Z,4.00
2023-04-25T10:37:58.170Z,2.08
2023-04-25T10:40:26.752Z,2.95
2023-04-25T10:42:56.887Z,1.90
2023-04-25T10:45:25.127Z,3.40
2023-04-25T10:47:53.145Z,4.80
2023-04-25T10:50:21.101Z,2.83
2023-04-25T10:52:49.080Z,3.80
2023-04-25T10:55:17.058Z,2.20
2023-04-25T10:57:48.340Z,2.80
2023-04-25T11:00:19.781Z,2.58
2023-04-25T11:02:50.573Z,2.75
2023-04-25T11:05:26.043Z,1.20
2023-04-25T11:10:46.934Z,2.03
2023-04-25T11:13:15.439Z,3.78
2023-04-25T11:14:38.026Z,2.38
2023-04-25T11:15:44.630Z,5.07
2023-04-25T11:18:12.605Z,3.60
2023-04-25T11:20:40.582Z,3.08
2023-04-25T11:23:08.462Z,3.25
2023-04-25T11:25:38.519Z,2.97
2023-04-25T11:28:06.939Z,1.48
2023-04-25T11:30:34.812Z,3.83
2023-04-25T11:33:04.764Z,2.17
2023-04-25T11:35:34.511Z,1.92
2023-04-25T11:38:03.580Z,1.50
2023-04-25T11:40:33.752Z,2.03
2023-04-25T11:43:02.806Z,1.73
2023-04-25T11:45:31.641Z,3.10
2023-04-25T11:47:59.613Z,1.80
2023-04-25T11:50:30.454Z,2.17
2023-04-25T11:52:58.920Z,2.70
2023-04-25T11:55:27.435Z,2.60
2023-04-25T11:57:55.492Z,1.95
2023-04-25T12:00:25.055Z,1.83
2023-04-25T12:02:54.786Z,1.58
2023-04-25T12:05:32.918Z,2.85
2023-04-25T12:08:13.951Z,1.80
2023-04-25T12:10:43.951Z,2.25
2023-04-25T12:13:23.126Z,2.58
2023-04-25T12:15:51.195Z,2.83
2023-04-25T12:18:22.113Z,1.80
2023-04-25T12:20:50.062Z,1.38
2023-04-25T12:35:36.031Z,3.63
2023-04-25T12:38:04.058Z,1.40
2023-04-25T12:40:31.975Z,1.70
2023-04-25T12:42:59.878Z,2.58
2023-04-25T12:45:27.836Z,3.08
2023-04-25T12:47:55.690Z,1.40
2023-04-25T12:50:23.680Z,0.93
2023-04-25T12:52:52.902Z,1.35
2023-04-25T12:55:20.806Z,2.88
2023-04-25T12:57:48.745Z,1.75
2023-04-25T13:00:19.251Z,1.77
2023-04-25T13:02:47.905Z,2.25
2023-04-25T13:05:16.147Z,1.25
2023-04-25T13:07:43.999Z,1.58
2023-04-25T13:10:13.347Z,1.00
2023-04-25T13:12:41.221Z,1.10
2023-04-25T13:15:12.179Z,0.80
2023-04-25T13:17:40.123Z,1.77
2023-04-25T13:20:10.606Z,1.23
2023-04-25T13:22:39.390Z,0.80
2023-04-25T13:25:08.944Z,1.52
2023-04-25T13:27:41.299Z,1.88
2023-04-25T13:30:10.217Z,1.05
2023-04-25T13:32:39.130Z,2.10
2023-04-25T13:35:11.162Z,1.30
2023-04-25T13:37:39.891Z,1.13
2023-04-25T13:40:11.172Z,1.38
2023-04-25T13:42:41.162Z,1.38
2023-04-25T13:45:10.139Z,2.90
2023-04-25T13:47:38.046Z,1.40
2023-04-25T13:50:08.315Z,1.98
2023-04-25T13:52:36.355Z,1.65
2023-04-25T13:55:04.983Z,1.27
2023-04-25T13:57:33.158Z,1.75
2023-04-25T14:00:05.754Z,0.90
2023-04-25T14:02:34.666Z,2.85
2023-04-25T14:05:02.701Z,1.73
2023-04-25T14:07:31.172Z,1.40
2023-04-25T14:09:59.420Z,0.85
2023-04-25T14:12:27.411Z,1.40
2023-04-25T14:14:55.455Z,0.63
2023-04-25T14:17:25.168Z,0.95
2023-04-25T14:19:53.129Z,0.80
2023-04-25T14:22:21.060Z,1.42
2023-04-25T14:24:48.957Z,1.13
2023-04-25T14:27:17.149Z,1.02
2023-04-25T14:29:45.122Z,2.65
2023-04-25T14:32:13.055Z,0.73
2023-04-25T14:34:42.393Z,1.38
2023-04-25T14:37:10.478Z,0.43
2023-04-25T14:39:38.899Z,1.38
2023-04-25T14:42:06.941Z,0.82
2023-04-25T14:44:34.988Z,0.50
2023-04-25T14:47:03.039Z,2.88
2023-04-25T14:49:31.128Z,1.85
2023-04-25T14:52:00.999Z,0.88
2023-04-25T14:54:28.936Z,0.85
2023-04-25T14:56:57.501Z,1.10
2023-04-25T14:59:25.486Z,1.90
2023-04-25T15:01:54.062Z,2.63
2023-04-25T15:04:22.110Z,3.95
2023-04-25T15:06:50.141Z,1.95
2023-04-25T15:09:19.445Z,1.35
2023-04-25T15:11:47.494Z,1.00
2023-04-25T15:14:15.496Z,1.35
2023-04-25T15:16:43.578Z,1.17
2023-04-25T15:19:11.670Z,2.42
2023-04-25T15:21:39.707Z,0.93
2023-04-25T15:24:09.052Z,2.42
2023-04-25T15:26:38.433Z,0.55
2023-04-25T15:29:07.550Z,0.70
2023-04-25T15:31:36.045Z,0.45
2023-04-25T15:34:04.193Z,0.70
2023-04-25T15:36:32.389Z,0.65
2023-04-25T15:39:00.343Z,0.95
2023-04-25T15:41:28.383Z,0.90
2023-04-25T15:43:57.752Z,0.95
2023-04-25T15:46:25.792Z,0.60
2023-04-25T15:48:53.816Z,0.88
2023-04-25T15:51:22.767Z,0.80
2023-04-25T15:53:51.083Z,0.82
2023-04-25T15:56:19.108Z,1.42
2023-04-25T15:58:47.116Z,1.58
2023-04-25T16:01:16.608Z,1.27
2023-04-25T16:03:44.824Z,2.17
2023-04-25T16:06:12.854Z,2.47
2023-04-25T16:08:41.208Z,1.73
2023-04-25T16:11:09.328Z,1.42
2023-04-25T16:13:37.212Z,2.10
2023-04-25T16:16:05.735Z,1.30
2023-04-25T16:18:35.056Z,2.28
2023-04-25T16:21:03.068Z,1.88
2023-04-25T16:23:31.349Z,1.48
2023-04-25T16:25:59.358Z,2.72
2023-04-25T16:28:27.297Z,1.67
2023-04-25T16:30:55.229Z,1.38
2023-04-25T16:33:23.263Z,1.70
2023-04-25T16:35:52.969Z,1.52
2023-04-25T16:38:21.738Z,1.90
2023-04-25T16:40:49.636Z,1.40
2023-04-25T16:43:20.531Z,3.42
2023-04-25T16:45:48.458Z,2.17
2023-04-25T16:48:19.207Z,1.85
2023-04-25T16:50:47.413Z,2.13
2023-04-25T16:53:17.447Z,2.63
2023-04-25T16:55:46.171Z,3.78
2023-04-25T16:58:14.578Z,4.32
2023-04-25T17:00:42.687Z,7.07
2023-04-25T17:03:10.916Z,16.40
2023-04-25T17:05:39.104Z,7.55
2023-04-25T17:08:07.094Z,5.72
2023-04-25T17:10:36.362Z,3.10
2023-04-25T17:13:04.335Z,4.05
2023-04-25T17:15:34.916Z,3.17
2023-04-25T17:18:02.934Z,2.50
2023-04-25T17:20:31.069Z,3.63
2023-04-25T17:22:59.813Z,2.95
2023-04-25T17:25:27.929Z,2.85
2023-04-25T17:27:57.308Z,3.05
2023-04-25T17:30:25.234Z,2.88
2023-04-25T17:32:53.298Z,3.33
2023-04-25T17:35:21.415Z,3.33
2023-04-25T17:37:50.345Z,2.55
2023-04-25T17:40:18.537Z,3.42
2023-04-25T17:42:46.538Z,3.83
2023-04-25T17:45:15.821Z,2.85
2023-04-25T17:47:43.700Z,4.05
2023-04-25T17:50:12.732Z,2.95
2023-04-25T17:52:40.793Z,2.55
2023-04-25T17:55:09.352Z,2.70
2023-04-25T17:57:37.584Z,3.97
2023-04-25T18:00:07.755Z,9.10
2023-04-25T18:02:41.727Z,13.68
2023-04-25T18:05:10.710Z,10.02
2023-04-25T18:07:38.824Z,8.77
2023-04-25T18:10:08.304Z,4.30
2023-04-25T18:12:36.987Z,17.35
2023-04-25T18:15:06.741Z,25.00
2023-04-25T18:17:39.926Z,13.15
2023-04-25T18:20:15.605Z,22.15
2023-04-25T18:22:44.463Z,11.88
2023-04-25T18:25:13.688Z,11.90
2023-04-25T18:27:42.802Z,11.93
2023-04-25T18:30:12.181Z,8.48
2023-04-25T18:32:40.278Z,3.40
2023-04-25T18:35:11.123Z,4.50
2023-04-25T18:37:41.003Z,2.65
2023-04-25T18:40:14.102Z,2.05
2023-04-25T18:42:43.084Z,3.05
2023-04-25T18:45:12.091Z,1.90
2023-04-25T18:47:40.281Z,1.50
2023-04-25T18:50:10.839Z,1.25
2023-04-25T18:52:38.840Z,1.65
2023-04-25T18:55:07.599Z,1.42
2023-04-25T18:57:36.022Z,2.00
2023-04-25T19:00:06.494Z,4.30
2023-04-25T19:02:35.613Z,3.63
2023-04-25T19:05:03.758Z,5.75
2023-04-25T19:07:33.035Z,3.47
2023-04-25T19:10:01.166Z,3.90
2023-04-25T19:12:29.130Z,3.95
2023-04-25T19:14:57.172Z,5.93
2023-04-25T19:17:28.974Z,3.92
2023-04-25T19:19:58.137Z,4.53
2023-04-25T19:22:27.403Z,4.47
2023-04-25T19:25:09.234Z,5.47
2023-04-25T19:27:38.850Z,5.25
2023-04-25T19:30:11.076Z,3.80
2023-04-25T19:32:39.246Z,3.58
2023-04-25T19:35:12.100Z,3.92
2023-04-25T19:37:45.927Z,4.93
2023-04-25T19:40:16.849Z,4.38
2023-04-25T19:42:45.221Z,4.18
2023-04-25T19:45:13.627Z,6.65
2023-04-25T19:47:42.050Z,7.07
2023-04-25T19:50:10.929Z,6.30
2023-04-25T19:52:39.905Z,5.50
2023-04-25T19:55:10.177Z,5.00
2023-04-25T19:57:39.508Z,3.95
2023-04-25T20:00:10.846Z,4.47
2023-04-25T20:02:42.131Z,4.18
2023-04-25T20:05:10.641Z,4.82
2023-04-25T20:07:38.642Z,5.97
2023-04-25T20:10:08.075Z,4.85
2023-04-25T20:12:40.135Z,5.20
2023-04-25T20:15:11.573Z,4.65
2023-04-25T20:17:41.573Z,4.40
2023-04-25T20:20:11.282Z,4.88
2023-04-25T20:22:40.452Z,5.95
2023-04-25T20:25:10.934Z,6.38
2023-04-25T20:27:39.249Z,6.03
2023-04-25T20:30:10.222Z,4.47
2023-04-25T20:32:38.755Z,4.15
2023-04-25T20:35:08.989Z,6.47
2023-04-25T20:37:37.617Z,5.97
2023-04-25T20:40:07.651Z,6.28
2023-04-25T20:42:36.181Z,6.38
2023-04-25T20:45:07.575Z,9.00
2023-04-25T20:47:37.217Z,6.60
2023-04-25T20:50:07.035Z,9.45
2023-04-25T20:52:35.820Z,6.35
2023-04-25T20:55:03.781Z,6.50
2023-04-25T20:57:32.626Z,7.15
2023-04-25T21:00:00.684Z,5.32
2023-04-25T21:02:30.066Z,6.35
2023-04-25T21:04:59.505Z,6.80
2023-04-25T21:07:27.624Z,5.97
2023-04-25T21:09:55.562Z,7.80
2023-04-25T21:12:23.500Z,6.00
2023-04-25T21:14:51.458Z,5.85
2023-04-25T21:17:19.507Z,5.95
2023-04-25T21:19:47.547Z,5.70
2023-04-25T21:22:16.840Z,4.57
2023-04-25T21:24:44.821Z,4.63
2023-04-25T21:27:12.752Z,5.38
2023-04-25T21:29:40.716Z,6.30
2023-04-25T21:32:08.857Z,6.70
2023-04-25T21:34:37.008Z,5.18
2023-04-25T21:37:04.897Z,8.65
2023-04-25T21:39:34.122Z,7.90
2023-04-25T21:42:03.054Z,6.82
2023-04-25T21:44:31.490Z,5.28
2023-04-25T21:46:59.432Z,10.13
2023-04-25T21:49:29.496Z,7.03
2023-04-25T21:51:57.820Z,5.32
2023-04-25T21:54:25.757Z,5.40
2023-04-25T21:56:55.476Z,6.05
2023-04-25T21:59:24.882Z,6.13
2023-04-25T22:01:53.413Z,5.40
2023-04-25T22:04:22.280Z,4.75
2023-04-25T22:06:50.530Z,5.13
2023-04-25T22:09:18.708Z,4.88
2023-04-25T22:11:47.876Z,5.70
2023-04-25T22:14:17.130Z,5.35
2023-04-25T22:16:45.766Z,4.30
2023-04-25T22:19:13.823Z,4.88
2023-04-25T22:21:41.720Z,4.82
2023-04-25T22:24:09.818Z,6.00
2023-04-25T22:26:37.694Z,7.35
2023-04-25T22:29:06.876Z,4.43
2023-04-25T22:31:36.252Z,5.50
2023-04-25T22:34:04.178Z,5.40
2023-04-25T22:36:33.224Z,7.95
2023-04-25T22:39:03.609Z,7.18
2023-04-25T22:41:31.610Z,6.28
2023-04-25T22:43:59.566Z,5.05
2023-04-25T22:46:27.912Z,4.88
2023-04-25T22:48:57.448Z,5.40
2023-04-25T22:51:25.941Z,5.70
2023-04-25T22:53:53.817Z,6.10
2023-04-25T22:56:21.940Z,6.93
2023-04-25T22:58:50.958Z,6.50
2023-04-25T23:01:19.488Z,6.28
2023-04-25T23:03:48.490Z,5.97
2023-04-25T23:06:18.706Z,6.75
2023-04-25T23:08:46.624Z,6.95
2023-04-25T23:11:14.511Z,5.47
2023-04-25T23:13:42.430Z,7.05
2023-04-25T23:16:11.611Z,5.72
2023-04-25T23:18:40.306Z,4.82
2023-04-25T23:21:09.361Z,6.68
2023-04-25T23:23:39.091Z,6.95
2023-04-25T23:26:10.322Z,7.28
2023-04-25T23:28:49.045Z,6.47
2023-04-25T23:31:17.405Z,7.15
2023-04-25T23:33:45.353Z,6.70
2023-04-25T23:36:19.851Z,8.35
2023-04-25T23:38:50.474Z,6.15
2023-04-25T23:41:18.753Z,7.50
2023-04-25T23:43:46.722Z,7.30
2023-04-25T23:46:15.145Z,6.93
2023-04-25T23:48:43.033Z,8.73
2023-04-25T23:51:10.945Z,7.65
2023-04-25T23:53:38.891Z,6.90
2023-04-25T23:56:08.184Z,8.50
2023-04-25T23:58:36.694Z,6.78
